sensor_id;sensor_type;location;lat;lon;timestamp;temperature;humidity
13472;DHT22;6808;49.444;11.034;2023-07-20T00:01:15;19.80;99.90
13472;DHT22;6808;49.444;11.034;2023-07-20T00:03:41;19.90;99.90
13472;DHT22;6808;49.444;11.034;2023-07-20T00:06:07;19.80;99.90
13472;DHT22;6808;49.444;11.034;2023-07-20T00:08:32;20.10;99.90
13472;DHT22;6808;49.444;11.034;2023-07-20T00:10:58;20.10;99.90
13472;DHT22;6808;49.444;11.034;2023-07-20T00:13:24;20.20;99.90
13472;DHT22;6808;49.444;11.034;2023-07-20T00:15:51;19.70;99.90
13472;DHT22;6808;49.444;11.034;2023-07-20T00:18:17;19.70;99.90
13472;DHT22;6808;49.444;11.034;2023-07-20T00:20:42;19.70;99.90
13472;DHT22;6808;49.444;11.034;2023-07-20T00:23:08;19.70;99.90
13472;DHT22;6808;49.444;11.034;2023-07-20T00:25:34;20.10;99.90
13472;DHT22;6808;49.444;11.034;2023-07-20T00:28:00;19.90;99.90
13472;DHT22;6808;49.444;11.034;2023-07-20T00:30:26;19.70;99.90
13472;DHT22;6808;49.444;11.034;2023-07-20T00:32:52;20.30;99.90
13472;DHT22;6808;49.444;11.034;2023-07-20T00:35:17;19.90;99.90
13472;DHT22;6808;49.444;11.034;2023-07-20T00:37:43;19.70;99.90
13472;DHT22;6808;49.444;11.034;2023-07-20T00:40:09;19.70;99.90
13472;DHT22;6808;49.444;11.034;2023-07-20T00:42:34;19.70;99.90
13472;DHT22;6808;49.444;11.034;2023-07-20T00:45:00;19.60;99.90
13472;DHT22;6808;49.444;11.034;2023-07-20T00:47:27;19.60;99.90
13472;DHT22;6808;49.444;11.034;2023-07-20T00:49:52;19.60;99.90
13472;DHT22;6808;49.444;11.034;2023-07-20T00:52:20;19.60;99.90
13472;DHT22;6808;49.444;11.034;2023-07-20T00:54:47;19.60;99.90
13472;DHT22;6808;49.444;11.034;2023-07-20T00:57:16;19.70;99.90
13472;DHT22;6808;49.444;11.034;2023-07-20T00:59:43;18.90;99.90
13472;DHT22;6808;49.444;11.034;2023-07-20T01:02:09;20.50;99.90
13472;DHT22;6808;49.444;11.034;2023-07-20T01:04:35;19.60;99.90
13472;DHT22;6808;49.444;11.034;2023-07-20T01:07:14;19.60;99.90
13472;DHT22;6808;49.444;11.034;2023-07-20T01:10:02;19.60;99.90
13472;DHT22;6808;49.444;11.034;2023-07-20T01:12:43;19.50;99.90
13472;DHT22;6808;49.444;11.034;2023-07-20T01:15:12;19.50;99.90
13472;DHT22;6808;49.444;11.034;2023-07-20T01:17:38;19.50;99.90
13472;DHT22;6808;49.444;11.034;2023-07-20T01:20:04;19.50;99.90
13472;DHT22;6808;49.444;11.034;2023-07-20T01:25:58;19.50;99.90
13472;DHT22;6808;49.444;11.034;2023-07-20T01:31:25;19.40;99.90
13472;DHT22;6808;49.444;11.034;2023-07-20T01:33:55;19.30;99.90
13472;DHT22;6808;49.444;11.034;2023-07-20T01:36:23;19.30;99.90
13472;DHT22;6808;49.444;11.034;2023-07-20T01:38:50;19.30;99.90
13472;DHT22;6808;49.444;11.034;2023-07-20T01:41:17;19.30;99.90
13472;DHT22;6808;49.444;11.034;2023-07-20T01:43:43;19.30;99.90
13472;DHT22;6808;49.444;11.034;2023-07-20T01:46:09;19.40;99.90
13472;DHT22;6808;49.444;11.034;2023-07-20T01:48:34;19.30;99.90
13472;DHT22;6808;49.444;11.034;2023-07-20T01:51:00;19.40;99.90
13472;DHT22;6808;49.444;11.034;2023-07-20T01:53:25;19.30;99.90
13472;DHT22;6808;49.444;11.034;2023-07-20T01:55:54;19.40;99.90
13472;DHT22;6808;49.444;11.034;2023-07-20T01:58:20;19.20;99.90
13472;DHT22;6808;49.444;11.034;2023-07-20T02:00:45;19.30;99.90
13472;DHT22;6808;49.444;11.034;2023-07-20T02:03:11;19.40;99.90
13472;DHT22;6808;49.444;11.034;2023-07-20T02:05:41;19.20;99.90
13472;DHT22;6808;49.444;11.034;2023-07-20T02:08:07;19.30;99.90
13472;DHT22;6808;49.444;11.034;2023-07-20T02:10:33;19.30;99.90
13472;DHT22;6808;49.444;11.034;2023-07-20T02:12:58;19.30;99.90
13472;DHT22;6808;49.444;11.034;2023-07-20T02:15:24;19.20;99.90
13472;DHT22;6808;49.444;11.034;2023-07-20T02:17:50;19.30;99.90
13472;DHT22;6808;49.444;11.034;2023-07-20T02:20:15;19.30;99.90
13472;DHT22;6808;49.444;11.034;2023-07-20T02:22:41;19.60;99.90
13472;DHT22;6808;49.444;11.034;2023-07-20T02:25:07;19.20;99.90
13472;DHT22;6808;49.444;11.034;2023-07-20T02:27:34;19.20;99.90
13472;DHT22;6808;49.444;11.034;2023-07-20T02:29:59;19.10;99.90
13472;DHT22;6808;49.444;11.034;2023-07-20T02:32:25;19.20;99.90
13472;DHT22;6808;49.444;11.034;2023-07-20T02:34:51;19.10;99.90
13472;DHT22;6808;49.444;11.034;2023-07-20T02:37:17;19.10;99.90
13472;DHT22;6808;49.444;11.034;2023-07-20T02:39:43;19.00;99.90
13472;DHT22;6808;49.444;11.034;2023-07-20T02:42:08;19.00;99.90
13472;DHT22;6808;49.444;11.034;2023-07-20T02:44:34;19.10;99.90
13472;DHT22;6808;49.444;11.034;2023-07-20T02:47:00;19.00;99.90
13472;DHT22;6808;49.444;11.034;2023-07-20T02:49:26;19.10;99.90
13472;DHT22;6808;49.444;11.034;2023-07-20T02:51:52;19.10;99.90
13472;DHT22;6808;49.444;11.034;2023-07-20T02:54:18;19.00;99.90
13472;DHT22;6808;49.444;11.034;2023-07-20T02:56:43;19.30;99.90
13472;DHT22;6808;49.444;11.034;2023-07-20T02:59:09;19.10;99.90
13472;DHT22;6808;49.444;11.034;2023-07-20T03:01:35;19.30;99.90
13472;DHT22;6808;49.444;11.034;2023-07-20T03:04:01;19.00;99.90
13472;DHT22;6808;49.444;11.034;2023-07-20T03:06:27;19.10;99.90
13472;DHT22;6808;49.444;11.034;2023-07-20T03:08:53;19.00;99.90
13472;DHT22;6808;49.444;11.034;2023-07-20T03:11:20;19.00;99.90
13472;DHT22;6808;49.444;11.034;2023-07-20T03:13:47;19.10;99.90
13472;DHT22;6808;49.444;11.034;2023-07-20T03:16:15;19.00;99.90
13472;DHT22;6808;49.444;11.034;2023-07-20T03:18:43;19.10;99.90
13472;DHT22;6808;49.444;11.034;2023-07-20T03:21:09;18.90;99.90
13472;DHT22;6808;49.444;11.034;2023-07-20T03:23:37;19.00;99.90
13472;DHT22;6808;49.444;11.034;2023-07-20T03:26:03;18.80;99.90
13472;DHT22;6808;49.444;11.034;2023-07-20T03:28:28;19.40;99.90
13472;DHT22;6808;49.444;11.034;2023-07-20T03:30:58;19.00;99.90
13472;DHT22;6808;49.444;11.034;2023-07-20T03:33:28;19.00;99.90
13472;DHT22;6808;49.444;11.034;2023-07-20T03:35:54;19.10;99.90
13472;DHT22;6808;49.444;11.034;2023-07-20T03:38:20;19.00;99.90
13472;DHT22;6808;49.444;11.034;2023-07-20T03:40:53;18.60;99.90
13472;DHT22;6808;49.444;11.034;2023-07-20T03:43:19;18.80;99.90
13472;DHT22;6808;49.444;11.034;2023-07-20T03:45:45;18.60;99.90
13472;DHT22;6808;49.444;11.034;2023-07-20T03:48:18;19.30;99.90
13472;DHT22;6808;49.444;11.034;2023-07-20T03:50:44;18.70;99.90
13472;DHT22;6808;49.444;11.034;2023-07-20T03:53:11;18.60;99.90
13472;DHT22;6808;49.444;11.034;2023-07-20T03:55:37;18.90;99.90
13472;DHT22;6808;49.444;11.034;2023-07-20T03:58:02;18.70;99.90
13472;DHT22;6808;49.444;11.034;2023-07-20T04:00:28;18.60;99.90
13472;DHT22;6808;49.444;11.034;2023-07-20T04:02:54;18.60;99.90
13472;DHT22;6808;49.444;11.034;2023-07-20T04:05:20;18.50;99.90
13472;DHT22;6808;49.444;11.034;2023-07-20T04:07:45;18.60;99.90
13472;DHT22;6808;49.444;11.034;2023-07-20T04:10:11;18.60;99.90
13472;DHT22;6808;49.444;11.034;2023-07-20T04:12:36;18.60;99.90
13472;DHT22;6808;49.444;11.034;2023-07-20T04:15:02;19.00;99.90
13472;DHT22;6808;49.444;11.034;2023-07-20T04:17:29;18.60;99.90
13472;DHT22;6808;49.444;11.034;2023-07-20T04:19:55;18.50;99.90
13472;DHT22;6808;49.444;11.034;2023-07-20T04:22:20;19.10;99.90
13472;DHT22;6808;49.444;11.034;2023-07-20T04:24:47;18.50;99.90
13472;DHT22;6808;49.444;11.034;2023-07-20T04:27:12;18.50;99.90
13472;DHT22;6808;49.444;11.034;2023-07-20T04:29:38;19.00;99.90
13472;DHT22;6808;49.444;11.034;2023-07-20T04:32:04;18.60;99.90
13472;DHT22;6808;49.444;11.034;2023-07-20T04:34:29;18.50;99.90
13472;DHT22;6808;49.444;11.034;2023-07-20T04:36:55;18.80;99.90
13472;DHT22;6808;49.444;11.034;2023-07-20T04:39:20;19.10;99.90
13472;DHT22;6808;49.444;11.034;2023-07-20T04:41:46;18.80;99.90
13472;DHT22;6808;49.444;11.034;2023-07-20T04:44:13;18.50;99.90
13472;DHT22;6808;49.444;11.034;2023-07-20T04:46:39;18.60;99.90
13472;DHT22;6808;49.444;11.034;2023-07-20T04:49:05;18.50;99.90
13472;DHT22;6808;49.444;11.034;2023-07-20T04:51:31;18.90;99.90
13472;DHT22;6808;49.444;11.034;2023-07-20T04:53:57;18.50;99.90
13472;DHT22;6808;49.444;11.034;2023-07-20T04:56:24;18.50;99.90
13472;DHT22;6808;49.444;11.034;2023-07-20T04:58:50;19.10;99.90
13472;DHT22;6808;49.444;11.034;2023-07-20T05:01:15;18.50;99.90
13472;DHT22;6808;49.444;11.034;2023-07-20T05:03:41;18.50;99.90
13472;DHT22;6808;49.444;11.034;2023-07-20T05:06:06;18.50;99.90
13472;DHT22;6808;49.444;11.034;2023-07-20T05:08:32;18.70;99.90
13472;DHT22;6808;49.444;11.034;2023-07-20T05:10:59;19.00;99.90
13472;DHT22;6808;49.444;11.034;2023-07-20T05:13:25;18.70;99.90
13472;DHT22;6808;49.444;11.034;2023-07-20T05:15:51;18.70;99.90
13472;DHT22;6808;49.444;11.034;2023-07-20T05:18:18;18.90;99.90
13472;DHT22;6808;49.444;11.034;2023-07-20T05:20:46;18.70;99.90
13472;DHT22;6808;49.444;11.034;2023-07-20T05:23:12;18.50;99.90
13472;DHT22;6808;49.444;11.034;2023-07-20T05:25:38;18.50;99.90
13472;DHT22;6808;49.444;11.034;2023-07-20T05:28:04;18.60;99.90
13472;DHT22;6808;49.444;11.034;2023-07-20T05:30:29;18.60;99.90
13472;DHT22;6808;49.444;11.034;2023-07-20T05:32:55;18.70;99.90
13472;DHT22;6808;49.444;11.034;2023-07-20T05:35:21;18.60;99.90
13472;DHT22;6808;49.444;11.034;2023-07-20T05:37:47;19.00;99.90
13472;DHT22;6808;49.444;11.034;2023-07-20T05:40:14;18.70;99.90
13472;DHT22;6808;49.444;11.034;2023-07-20T05:42:43;18.80;99.90
13472;DHT22;6808;49.444;11.034;2023-07-20T05:45:09;18.80;99.90
13472;DHT22;6808;49.444;11.034;2023-07-20T05:47:35;18.80;99.90
13472;DHT22;6808;49.444;11.034;2023-07-20T05:50:00;19.10;99.90
13472;DHT22;6808;49.444;11.034;2023-07-20T05:52:26;19.30;99.90
13472;DHT22;6808;49.444;11.034;2023-07-20T05:54:52;19.30;99.90
13472;DHT22;6808;49.444;11.034;2023-07-20T05:57:17;18.80;99.90
13472;DHT22;6808;49.444;11.034;2023-07-20T05:59:43;19.00;99.90
13472;DHT22;6808;49.444;11.034;2023-07-20T06:02:10;19.00;99.90
13472;DHT22;6808;49.444;11.034;2023-07-20T06:04:36;19.20;99.90
13472;DHT22;6808;49.444;11.034;2023-07-20T06:07:02;19.50;99.90
13472;DHT22;6808;49.444;11.034;2023-07-20T06:09:27;19.50;99.90
13472;DHT22;6808;49.444;11.034;2023-07-20T06:11:53;19.40;99.90
13472;DHT22;6808;49.444;11.034;2023-07-20T06:14:19;19.40;99.90
13472;DHT22;6808;49.444;11.034;2023-07-20T06:16:44;19.50;99.90
13472;DHT22;6808;49.444;11.034;2023-07-20T06:19:10;19.30;99.90
13472;DHT22;6808;49.444;11.034;2023-07-20T06:21:37;19.20;99.90
13472;DHT22;6808;49.444;11.034;2023-07-20T06:24:03;19.10;99.90
13472;DHT22;6808;49.444;11.034;2023-07-20T06:26:29;19.40;99.90
13472;DHT22;6808;49.444;11.034;2023-07-20T06:28:56;19.50;99.90
13472;DHT22;6808;49.444;11.034;2023-07-20T06:31:21;20.00;99.90
13472;DHT22;6808;49.444;11.034;2023-07-20T06:33:47;19.90;99.90
13472;DHT22;6808;49.444;11.034;2023-07-20T06:36:12;20.10;99.90
13472;DHT22;6808;49.444;11.034;2023-07-20T06:38:38;20.00;99.90
13472;DHT22;6808;49.444;11.034;2023-07-20T06:41:03;20.30;99.90
13472;DHT22;6808;49.444;11.034;2023-07-20T06:43:29;20.30;99.90
13472;DHT22;6808;49.444;11.034;2023-07-20T06:45:55;20.30;99.90
13472;DHT22;6808;49.444;11.034;2023-07-20T06:48:21;20.40;99.90
13472;DHT22;6808;49.444;11.034;2023-07-20T06:50:47;20.60;99.90
13472;DHT22;6808;49.444;11.034;2023-07-20T06:53:12;20.50;99.60
13472;DHT22;6808;49.444;11.034;2023-07-20T06:55:38;20.60;99.70
13472;DHT22;6808;49.444;11.034;2023-07-20T06:58:04;21.00;99.90
13472;DHT22;6808;49.444;11.034;2023-07-20T07:00:29;21.00;99.90
13472;DHT22;6808;49.444;11.034;2023-07-20T07:02:55;20.90;99.50
13472;DHT22;6808;49.444;11.034;2023-07-20T07:05:20;21.00;99.70
13472;DHT22;6808;49.444;11.034;2023-07-20T07:07:46;21.00;99.40
13472;DHT22;6808;49.444;11.034;2023-07-20T07:10:12;21.20;99.30
13472;DHT22;6808;49.444;11.034;2023-07-20T07:12:37;21.20;98.90
13472;DHT22;6808;49.444;11.034;2023-07-20T07:15:05;21.30;98.20
13472;DHT22;6808;49.444;11.034;2023-07-20T07:17:33;21.40;97.30
13472;DHT22;6808;49.444;11.034;2023-07-20T07:19:59;21.60;96.70
13472;DHT22;6808;49.444;11.034;2023-07-20T07:22:24;21.30;97.50
13472;DHT22;6808;49.444;11.034;2023-07-20T07:24:51;21.30;97.50
13472;DHT22;6808;49.444;11.034;2023-07-20T07:27:16;21.30;97.90
13472;DHT22;6808;49.444;11.034;2023-07-20T07:29:42;21.00;97.80
13472;DHT22;6808;49.444;11.034;2023-07-20T07:32:12;21.00;97.70
13472;DHT22;6808;49.444;11.034;2023-07-20T07:34:38;21.00;97.30
13472;DHT22;6808;49.444;11.034;2023-07-20T07:37:04;21.10;97.00
13472;DHT22;6808;49.444;11.034;2023-07-20T07:39:30;21.10;96.10
13472;DHT22;6808;49.444;11.034;2023-07-20T07:41:57;21.30;95.80
13472;DHT22;6808;49.444;11.034;2023-07-20T07:44:23;21.30;94.70
13472;DHT22;6808;49.444;11.034;2023-07-20T07:46:49;21.60;94.70
13472;DHT22;6808;49.444;11.034;2023-07-20T07:49:15;21.50;94.50
13472;DHT22;6808;49.444;11.034;2023-07-20T07:51:40;21.70;94.80
13472;DHT22;6808;49.444;11.034;2023-07-20T07:54:06;21.60;95.30
13472;DHT22;6808;49.444;11.034;2023-07-20T07:56:32;21.40;93.30
13472;DHT22;6808;49.444;11.034;2023-07-20T07:58:57;21.20;93.20
13472;DHT22;6808;49.444;11.034;2023-07-20T08:01:23;21.30;93.20
13472;DHT22;6808;49.444;11.034;2023-07-20T08:03:48;21.40;93.50
13472;DHT22;6808;49.444;11.034;2023-07-20T08:06:14;21.50;93.70
13472;DHT22;6808;49.444;11.034;2023-07-20T08:08:40;21.50;93.40
13472;DHT22;6808;49.444;11.034;2023-07-20T08:11:06;21.30;94.40
13472;DHT22;6808;49.444;11.034;2023-07-20T08:13:31;21.30;94.60
13472;DHT22;6808;49.444;11.034;2023-07-20T08:15:57;21.30;93.40
13472;DHT22;6808;49.444;11.034;2023-07-20T08:18:23;21.30;93.30
13472;DHT22;6808;49.444;11.034;2023-07-20T08:20:49;21.30;92.50
13472;DHT22;6808;49.444;11.034;2023-07-20T08:23:15;21.50;93.20
13472;DHT22;6808;49.444;11.034;2023-07-20T08:25:41;21.40;92.80
13472;DHT22;6808;49.444;11.034;2023-07-20T08:28:10;21.60;93.20
13472;DHT22;6808;49.444;11.034;2023-07-20T08:30:45;21.50;92.10
13472;DHT22;6808;49.444;11.034;2023-07-20T08:33:12;21.90;93.30
13472;DHT22;6808;49.444;11.034;2023-07-20T08:35:38;21.90;91.40
13472;DHT22;6808;49.444;11.034;2023-07-20T08:38:04;21.90;91.90
13472;DHT22;6808;49.444;11.034;2023-07-20T08:40:31;21.90;93.20
13472;DHT22;6808;49.444;11.034;2023-07-20T08:42:59;21.90;92.80
13472;DHT22;6808;49.444;11.034;2023-07-20T08:45:27;21.90;91.50
13472;DHT22;6808;49.444;11.034;2023-07-20T08:47:56;22.20;92.30
13472;DHT22;6808;49.444;11.034;2023-07-20T08:50:25;22.20;87.90
13472;DHT22;6808;49.444;11.034;2023-07-20T08:52:53;22.40;87.50
13472;DHT22;6808;49.444;11.034;2023-07-20T08:55:20;22.40;89.00
13472;DHT22;6808;49.444;11.034;2023-07-20T08:57:50;22.40;90.40
13472;DHT22;6808;49.444;11.034;2023-07-20T09:00:17;22.40;88.20
13472;DHT22;6808;49.444;11.034;2023-07-20T09:02:45;22.60;91.40
13472;DHT22;6808;49.444;11.034;2023-07-20T09:05:11;22.70;89.20
13472;DHT22;6808;49.444;11.034;2023-07-20T09:07:39;22.80;83.40
13472;DHT22;6808;49.444;11.034;2023-07-20T09:10:06;22.80;85.10
13472;DHT22;6808;49.444;11.034;2023-07-20T09:12:35;22.70;86.20
13472;DHT22;6808;49.444;11.034;2023-07-20T09:15:02;22.60;80.30
13472;DHT22;6808;49.444;11.034;2023-07-20T09:17:28;22.60;82.10
13472;DHT22;6808;49.444;11.034;2023-07-20T09:19:54;22.60;83.50
13472;DHT22;6808;49.444;11.034;2023-07-20T09:22:19;22.60;82.80
13472;DHT22;6808;49.444;11.034;2023-07-20T09:24:45;22.60;82.90
13472;DHT22;6808;49.444;11.034;2023-07-20T09:27:11;22.60;83.40
13472;DHT22;6808;49.444;11.034;2023-07-20T09:29:57;22.60;82.40
13472;DHT22;6808;49.444;11.034;2023-07-20T09:32:22;22.70;82.50
13472;DHT22;6808;49.444;11.034;2023-07-20T09:34:50;22.80;86.00
13472;DHT22;6808;49.444;11.034;2023-07-20T09:37:20;22.80;82.20
13472;DHT22;6808;49.444;11.034;2023-07-20T09:39:47;22.90;80.40
13472;DHT22;6808;49.444;11.034;2023-07-20T09:42:13;23.00;79.30
13472;DHT22;6808;49.444;11.034;2023-07-20T09:44:39;23.00;76.90
13472;DHT22;6808;49.444;11.034;2023-07-20T09:47:06;22.90;76.60
13472;DHT22;6808;49.444;11.034;2023-07-20T09:49:32;22.60;73.90
13472;DHT22;6808;49.444;11.034;2023-07-20T09:51:58;22.30;75.50
13472;DHT22;6808;49.444;11.034;2023-07-20T09:54:26;22.30;76.00
13472;DHT22;6808;49.444;11.034;2023-07-20T09:56:52;22.40;74.60
13472;DHT22;6808;49.444;11.034;2023-07-20T09:59:19;22.50;72.10
13472;DHT22;6808;49.444;11.034;2023-07-20T10:01:45;22.70;71.50
13472;DHT22;6808;49.444;11.034;2023-07-20T10:04:11;22.90;70.70
13472;DHT22;6808;49.444;11.034;2023-07-20T10:06:41;23.10;72.20
13472;DHT22;6808;49.444;11.034;2023-07-20T10:09:07;23.10;71.30
13472;DHT22;6808;49.444;11.034;2023-07-20T10:11:36;23.40;73.00
13472;DHT22;6808;49.444;11.034;2023-07-20T10:14:04;23.50;73.40
13472;DHT22;6808;49.444;11.034;2023-07-20T10:16:39;23.60;72.60
13472;DHT22;6808;49.444;11.034;2023-07-20T10:19:11;23.90;75.40
13472;DHT22;6808;49.444;11.034;2023-07-20T10:21:42;24.00;70.80
13472;DHT22;6808;49.444;11.034;2023-07-20T10:24:11;24.10;76.00
13472;DHT22;6808;49.444;11.034;2023-07-20T10:26:38;24.00;68.00
13472;DHT22;6808;49.444;11.034;2023-07-20T10:29:04;23.80;67.20
13472;DHT22;6808;49.444;11.034;2023-07-20T10:31:31;23.80;69.30
13472;DHT22;6808;49.444;11.034;2023-07-20T10:33:57;24.00;73.20
13472;DHT22;6808;49.444;11.034;2023-07-20T10:36:27;24.20;64.90
13472;DHT22;6808;49.444;11.034;2023-07-20T10:38:56;24.20;60.40
13472;DHT22;6808;49.444;11.034;2023-07-20T10:41:28;23.90;63.10
13472;DHT22;6808;49.444;11.034;2023-07-20T10:44:07;24.00;67.60
13472;DHT22;6808;49.444;11.034;2023-07-20T10:49:06;24.20;65.30
13472;DHT22;6808;49.444;11.034;2023-07-20T10:56:54;24.60;69.50
13472;DHT22;6808;49.444;11.034;2023-07-20T10:59:37;24.80;63.30
13472;DHT22;6808;49.444;11.034;2023-07-20T11:02:07;24.90;59.30
13472;DHT22;6808;49.444;11.034;2023-07-20T11:04:45;24.60;59.10
13472;DHT22;6808;49.444;11.034;2023-07-20T11:07:15;24.70;60.20
13472;DHT22;6808;49.444;11.034;2023-07-20T11:09:41;24.50;58.40
13472;DHT22;6808;49.444;11.034;2023-07-20T11:12:11;24.40;58.80
13472;DHT22;6808;49.444;11.034;2023-07-20T11:14:54;24.30;58.40
13472;DHT22;6808;49.444;11.034;2023-07-20T11:17:31;24.30;58.50
13472;DHT22;6808;49.444;11.034;2023-07-20T11:19:58;24.30;56.70
13472;DHT22;6808;49.444;11.034;2023-07-20T11:22:26;24.40;57.90
13472;DHT22;6808;49.444;11.034;2023-07-20T11:24:55;24.30;58.40
13472;DHT22;6808;49.444;11.034;2023-07-20T11:27:21;24.30;67.30
13472;DHT22;6808;49.444;11.034;2023-07-20T11:29:50;24.50;59.50
13472;DHT22;6808;49.444;11.034;2023-07-20T11:32:22;24.40;58.90
13472;DHT22;6808;49.444;11.034;2023-07-20T11:34:49;24.40;58.90
13472;DHT22;6808;49.444;11.034;2023-07-20T11:37:15;24.60;59.00
13472;DHT22;6808;49.444;11.034;2023-07-20T11:39:41;24.90;58.00
13472;DHT22;6808;49.444;11.034;2023-07-20T11:42:08;24.90;59.40
13472;DHT22;6808;49.444;11.034;2023-07-20T11:44:33;25.00;58.50
13472;DHT22;6808;49.444;11.034;2023-07-20T11:47:04;25.10;57.10
13472;DHT22;6808;49.444;11.034;2023-07-20T11:49:41;25.20;58.60
13472;DHT22;6808;49.444;11.034;2023-07-20T11:52:08;25.40;57.80
13472;DHT22;6808;49.444;11.034;2023-07-20T11:54:35;25.50;57.90
13472;DHT22;6808;49.444;11.034;2023-07-20T11:57:02;25.60;57.00
13472;DHT22;6808;49.444;11.034;2023-07-20T11:59:28;25.80;53.90
13472;DHT22;6808;49.444;11.034;2023-07-20T12:01:53;25.70;52.80
13472;DHT22;6808;49.444;11.034;2023-07-20T12:04:19;25.80;54.40
13472;DHT22;6808;49.444;11.034;2023-07-20T12:06:48;26.00;55.00
13472;DHT22;6808;49.444;11.034;2023-07-20T12:09:14;26.20;54.80
13472;DHT22;6808;49.444;11.034;2023-07-20T12:11:43;26.20;51.50
13472;DHT22;6808;49.444;11.034;2023-07-20T12:14:09;26.30;51.80
13472;DHT22;6808;49.444;11.034;2023-07-20T12:16:36;26.20;51.50
13472;DHT22;6808;49.444;11.034;2023-07-20T12:19:05;26.30;51.60
13472;DHT22;6808;49.444;11.034;2023-07-20T12:21:31;26.40;50.90
13472;DHT22;6808;49.444;11.034;2023-07-20T12:23:58;26.40;47.10
13472;DHT22;6808;49.444;11.034;2023-07-20T12:26:25;26.40;46.50
13472;DHT22;6808;49.444;11.034;2023-07-20T12:28:52;26.40;47.00
13472;DHT22;6808;49.444;11.034;2023-07-20T12:31:18;26.10;45.30
13472;DHT22;6808;49.444;11.034;2023-07-20T12:33:44;26.10;46.20
13472;DHT22;6808;49.444;11.034;2023-07-20T12:36:10;26.20;47.00
13472;DHT22;6808;49.444;11.034;2023-07-20T12:38:36;26.30;46.70
13472;DHT22;6808;49.444;11.034;2023-07-20T12:41:02;26.30;47.70
13472;DHT22;6808;49.444;11.034;2023-07-20T12:43:28;26.40;45.60
13472;DHT22;6808;49.444;11.034;2023-07-20T12:45:55;26.60;46.50
13472;DHT22;6808;49.444;11.034;2023-07-20T12:48:21;26.60;46.30
13472;DHT22;6808;49.444;11.034;2023-07-20T12:50:47;26.80;45.80
13472;DHT22;6808;49.444;11.034;2023-07-20T12:53:13;26.90;48.20
13472;DHT22;6808;49.444;11.034;2023-07-20T12:55:39;26.90;44.30
13472;DHT22;6808;49.444;11.034;2023-07-20T12:58:06;26.70;45.40
13472;DHT22;6808;49.444;11.034;2023-07-20T13:00:32;26.80;45.80
13472;DHT22;6808;49.444;11.034;2023-07-20T13:02:57;27.00;47.40
13472;DHT22;6808;49.444;11.034;2023-07-20T13:05:23;27.20;45.30
13472;DHT22;6808;49.444;11.034;2023-07-20T13:07:49;27.30;46.60
13472;DHT22;6808;49.444;11.034;2023-07-20T13:10:15;27.50;48.00
13472;DHT22;6808;49.444;11.034;2023-07-20T13:12:41;27.60;44.70
13472;DHT22;6808;49.444;11.034;2023-07-20T13:15:08;27.40;43.20
13472;DHT22;6808;49.444;11.034;2023-07-20T13:17:38;27.20;44.60
13472;DHT22;6808;49.444;11.034;2023-07-20T13:20:05;27.10;44.60
13472;DHT22;6808;49.444;11.034;2023-07-20T13:22:32;26.90;43.50
13472;DHT22;6808;49.444;11.034;2023-07-20T13:24:57;26.80;46.90
13472;DHT22;6808;49.444;11.034;2023-07-20T13:27:23;27.00;48.10
13472;DHT22;6808;49.444;11.034;2023-07-20T13:29:51;27.00;44.90
13472;DHT22;6808;49.444;11.034;2023-07-20T13:32:17;27.20;46.80
13472;DHT22;6808;49.444;11.034;2023-07-20T13:34:43;27.40;48.40
13472;DHT22;6808;49.444;11.034;2023-07-20T13:37:10;27.50;45.20
13472;DHT22;6808;49.444;11.034;2023-07-20T13:39:37;27.60;44.90
13472;DHT22;6808;49.444;11.034;2023-07-20T13:42:03;27.50;43.00
13472;DHT22;6808;49.444;11.034;2023-07-20T13:44:31;27.60;44.80
13472;DHT22;6808;49.444;11.034;2023-07-20T13:46:56;27.80;46.10
13472;DHT22;6808;49.444;11.034;2023-07-20T13:49:22;27.90;43.50
13472;DHT22;6808;49.444;11.034;2023-07-20T13:51:48;28.00;44.00
13472;DHT22;6808;49.444;11.034;2023-07-20T13:54:13;28.20;43.80
13472;DHT22;6808;49.444;11.034;2023-07-20T13:56:39;28.20;43.00
13472;DHT22;6808;49.444;11.034;2023-07-20T13:59:05;28.10;42.10
13472;DHT22;6808;49.444;11.034;2023-07-20T14:01:30;28.30;43.60
13472;DHT22;6808;49.444;11.034;2023-07-20T14:03:58;28.20;43.40
13472;DHT22;6808;49.444;11.034;2023-07-20T14:06:24;28.10;41.00
13472;DHT22;6808;49.444;11.034;2023-07-20T14:08:50;27.40;41.30
13472;DHT22;6808;49.444;11.034;2023-07-20T14:11:16;28.00;39.70
13472;DHT22;6808;49.444;11.034;2023-07-20T14:13:42;27.90;41.20
13472;DHT22;6808;49.444;11.034;2023-07-20T14:16:07;27.50;39.70
13472;DHT22;6808;49.444;11.034;2023-07-20T14:18:33;27.30;40.70
13472;DHT22;6808;49.444;11.034;2023-07-20T14:20:59;27.40;39.50
13472;DHT22;6808;49.444;11.034;2023-07-20T14:23:25;27.50;42.00
13472;DHT22;6808;49.444;11.034;2023-07-20T14:25:51;27.70;40.50
13472;DHT22;6808;49.444;11.034;2023-07-20T14:28:16;27.80;41.40
13472;DHT22;6808;49.444;11.034;2023-07-20T14:30:42;27.80;41.80
13472;DHT22;6808;49.444;11.034;2023-07-20T14:33:07;27.90;43.30
13472;DHT22;6808;49.444;11.034;2023-07-20T14:35:33;27.90;41.70
13472;DHT22;6808;49.444;11.034;2023-07-20T14:37:59;27.70;40.40
13472;DHT22;6808;49.444;11.034;2023-07-20T14:40:25;27.50;40.20
13472;DHT22;6808;49.444;11.034;2023-07-20T14:42:50;27.40;41.40
13472;DHT22;6808;49.444;11.034;2023-07-20T14:45:17;27.40;42.30
13472;DHT22;6808;49.444;11.034;2023-07-20T14:47:43;27.60;42.60
13472;DHT22;6808;49.444;11.034;2023-07-20T14:50:09;27.70;43.10
13472;DHT22;6808;49.444;11.034;2023-07-20T14:52:34;27.90;42.50
13472;DHT22;6808;49.444;11.034;2023-07-20T14:55:00;27.90;41.10
13472;DHT22;6808;49.444;11.034;2023-07-20T14:57:26;27.70;40.70
13472;DHT22;6808;49.444;11.034;2023-07-20T14:59:51;27.40;41.90
13472;DHT22;6808;49.444;11.034;2023-07-20T15:02:18;27.30;41.20
13472;DHT22;6808;49.444;11.034;2023-07-20T15:04:48;27.40;42.90
13472;DHT22;6808;49.444;11.034;2023-07-20T15:07:18;27.60;44.00
13472;DHT22;6808;49.444;11.034;2023-07-20T15:09:44;27.60;43.10
13472;DHT22;6808;49.444;11.034;2023-07-20T15:12:10;27.60;43.70
13472;DHT22;6808;49.444;11.034;2023-07-20T15:14:39;27.80;44.00
13472;DHT22;6808;49.444;11.034;2023-07-20T15:17:05;27.90;43.50
13472;DHT22;6808;49.444;11.034;2023-07-20T15:19:30;27.90;43.90
13472;DHT22;6808;49.444;11.034;2023-07-20T15:21:56;28.00;42.20
13472;DHT22;6808;49.444;11.034;2023-07-20T15:24:22;27.70;41.50
13472;DHT22;6808;49.444;11.034;2023-07-20T15:26:47;27.60;41.60
13472;DHT22;6808;49.444;11.034;2023-07-20T15:29:13;27.40;43.20
13472;DHT22;6808;49.444;11.034;2023-07-20T15:31:39;27.40;43.00
13472;DHT22;6808;49.444;11.034;2023-07-20T15:34:04;27.30;40.90
13472;DHT22;6808;49.444;11.034;2023-07-20T15:36:30;27.50;43.20
13472;DHT22;6808;49.444;11.034;2023-07-20T15:38:56;27.50;42.60
13472;DHT22;6808;49.444;11.034;2023-07-20T15:41:22;27.60;42.30